sensor_id;sensor_type;location;lat;lon;timestamp;temperature;humidity
8408;DHT22;4241;48.452;9.216;2023-12-20T00:02:21;6.90;99.90
8408;DHT22;4241;48.452;9.216;2023-12-20T00:04:48;6.90;99.90
8408;DHT22;4241;48.452;9.216;2023-12-20T00:07:15;7.00;99.90
8408;DHT22;4241;48.452;9.216;2023-12-20T00:09:42;6.90;99.90
8408;DHT22;4241;48.452;9.216;2023-12-20T00:12:09;7.00;99.90
8408;DHT22;4241;48.452;9.216;2023-12-20T00:14:36;7.00;99.90
8408;DHT22;4241;48.452;9.216;2023-12-20T00:17:04;7.00;99.90
8408;DHT22;4241;48.452;9.216;2023-12-20T00:19:31;7.10;99.90
8408;DHT22;4241;48.452;9.216;2023-12-20T00:21:58;7.00;99.90
8408;DHT22;4241;48.452;9.216;2023-12-20T00:24:26;6.90;99.90
8408;DHT22;4241;48.452;9.216;2023-12-20T00:26:52;7.10;99.90
8408;DHT22;4241;48.452;9.216;2023-12-20T00:31:46;7.10;99.90
8408;DHT22;4241;48.452;9.216;2023-12-20T00:34:14;7.10;99.90
8408;DHT22;4241;48.452;9.216;2023-12-20T00:36:41;7.20;99.90
8408;DHT22;4241;48.452;9.216;2023-12-20T00:39:08;7.20;99.90
8408;DHT22;4241;48.452;9.216;2023-12-20T00:41:35;7.20;99.90
8408;DHT22;4241;48.452;9.216;2023-12-20T00:44:01;7.10;99.90
8408;DHT22;4241;48.452;9.216;2023-12-20T00:46:28;6.90;99.90
8408;DHT22;4241;48.452;9.216;2023-12-20T00:48:55;7.30;99.90
8408;DHT22;4241;48.452;9.216;2023-12-20T00:51:23;7.20;99.90
8408;DHT22;4241;48.452;9.216;2023-12-20T00:53:50;7.20;99.90
8408;DHT22;4241;48.452;9.216;2023-12-20T00:56:20;7.10;99.90
8408;DHT22;4241;48.452;9.216;2023-12-20T00:58:47;7.10;99.90
8408;DHT22;4241;48.452;9.216;2023-12-20T01:01:13;7.20;99.90
8408;DHT22;4241;48.452;9.216;2023-12-20T01:03:40;7.20;99.90
8408;DHT22;4241;48.452;9.216;2023-12-20T01:06:07;7.20;99.90
8408;DHT22;4241;48.452;9.216;2023-12-20T01:08:35;7.20;99.90
8408;DHT22;4241;48.452;9.216;2023-12-20T01:11:04;7.10;99.90
8408;DHT22;4241;48.452;9.216;2023-12-20T01:13:31;7.00;99.90
8408;DHT22;4241;48.452;9.216;2023-12-20T01:15:58;7.10;99.90
8408;DHT22;4241;48.452;9.216;2023-12-20T01:18:25;7.00;99.90
8408;DHT22;4241;48.452;9.216;2023-12-20T01:20:51;6.90;99.90
8408;DHT22;4241;48.452;9.216;2023-12-20T01:23:18;6.90;99.90
8408;DHT22;4241;48.452;9.216;2023-12-20T01:25:46;6.90;99.90
8408;DHT22;4241;48.452;9.216;2023-12-20T01:28:13;8.60;99.90
8408;DHT22;4241;48.452;9.216;2023-12-20T01:30:40;6.70;99.90
8408;DHT22;4241;48.452;9.216;2023-12-20T01:33:06;6.70;99.90
8408;DHT22;4241;48.452;9.216;2023-12-20T01:35:33;6.70;99.90
8408;DHT22;4241;48.452;9.216;2023-12-20T01:38:00;6.70;99.90
8408;DHT22;4241;48.452;9.216;2023-12-20T01:40:27;6.50;99.90
8408;DHT22;4241;48.452;9.216;2023-12-20T01:43:04;6.40;99.90
8408;DHT22;4241;48.452;9.216;2023-12-20T01:45:31;6.40;99.90
8408;DHT22;4241;48.452;9.216;2023-12-20T01:47:58;6.30;99.90
8408;DHT22;4241;48.452;9.216;2023-12-20T01:50:28;6.30;99.90
8408;DHT22;4241;48.452;9.216;2023-12-20T01:52:55;6.10;99.90
8408;DHT22;4241;48.452;9.216;2023-12-20T01:55:24;6.10;99.90
8408;DHT22;4241;48.452;9.216;2023-12-20T01:57:51;6.10;99.90
8408;DHT22;4241;48.452;9.216;2023-12-20T02:00:19;6.00;99.90
8408;DHT22;4241;48.452;9.216;2023-12-20T02:02:50;6.10;99.90
8408;DHT22;4241;48.452;9.216;2023-12-20T02:07:45;6.00;99.90
8408;DHT22;4241;48.452;9.216;2023-12-20T02:10:12;6.00;99.90
8408;DHT22;4241;48.452;9.216;2023-12-20T02:12:39;6.00;99.90
8408;DHT22;4241;48.452;9.216;2023-12-20T02:15:07;5.90;99.90
8408;DHT22;4241;48.452;9.216;2023-12-20T02:17:36;5.90;99.90
8408;DHT22;4241;48.452;9.216;2023-12-20T02:20:06;5.90;99.90
8408;DHT22;4241;48.452;9.216;2023-12-20T02:22:34;5.90;99.90
8408;DHT22;4241;48.452;9.216;2023-12-20T02:25:01;5.80;99.90
8408;DHT22;4241;48.452;9.216;2023-12-20T02:27:28;5.80;99.90
8408;DHT22;4241;48.452;9.216;2023-12-20T02:29:55;5.80;99.90
8408;DHT22;4241;48.452;9.216;2023-12-20T02:32:23;5.80;99.90
8408;DHT22;4241;48.452;9.216;2023-12-20T02:34:51;5.80;99.90
8408;DHT22;4241;48.452;9.216;2023-12-20T02:37:18;5.80;99.90
8408;DHT22;4241;48.452;9.216;2023-12-20T02:39:46;5.80;99.90
8408;DHT22;4241;48.452;9.216;2023-12-20T02:42:13;5.90;99.90
8408;DHT22;4241;48.452;9.216;2023-12-20T02:47:07;5.80;99.90
8408;DHT22;4241;48.452;9.216;2023-12-20T02:49:34;5.80;99.90
8408;DHT22;4241;48.452;9.216;2023-12-20T02:54:28;5.70;99.90
8408;DHT22;4241;48.452;9.216;2023-12-20T02:56:56;5.50;99.90
8408;DHT22;4241;48.452;9.216;2023-12-20T02:59:23;5.80;99.90
8408;DHT22;4241;48.452;9.216;2023-12-20T03:01:49;5.80;99.90
8408;DHT22;4241;48.452;9.216;2023-12-20T03:04:16;5.80;99.90
8408;DHT22;4241;48.452;9.216;2023-12-20T03:06:43;5.90;99.90
8408;DHT22;4241;48.452;9.216;2023-12-20T03:09:10;5.70;99.90
8408;DHT22;4241;48.452;9.216;2023-12-20T03:11:36;5.90;99.90
8408;DHT22;4241;48.452;9.216;2023-12-20T03:14:04;5.80;99.90
8408;DHT22;4241;48.452;9.216;2023-12-20T03:16:31;5.90;99.90
8408;DHT22;4241;48.452;9.216;2023-12-20T03:18:58;5.80;99.90
8408;DHT22;4241;48.452;9.216;2023-12-20T03:21:25;5.80;99.90
8408;DHT22;4241;48.452;9.216;2023-12-20T03:23:52;5.80;99.90
8408;DHT22;4241;48.452;9.216;2023-12-20T03:26:18;5.80;99.90
8408;DHT22;4241;48.452;9.216;2023-12-20T03:28:45;5.80;99.90
8408;DHT22;4241;48.452;9.216;2023-12-20T03:31:13;5.80;99.90
8408;DHT22;4241;48.452;9.216;2023-12-20T03:33:40;5.80;99.90
8408;DHT22;4241;48.452;9.216;2023-12-20T03:36:07;5.80;99.90
8408;DHT22;4241;48.452;9.216;2023-12-20T03:38:34;5.60;99.90
8408;DHT22;4241;48.452;9.216;2023-12-20T03:41:01;5.70;99.90
8408;DHT22;4241;48.452;9.216;2023-12-20T03:43:28;5.70;99.90
8408;DHT22;4241;48.452;9.216;2023-12-20T03:45:54;5.70;99.90
8408;DHT22;4241;48.452;9.216;2023-12-20T03:48:23;5.60;99.90
8408;DHT22;4241;48.452;9.216;2023-12-20T03:50:49;5.60;99.90
8408;DHT22;4241;48.452;9.216;2023-12-20T03:53:16;5.70;99.90
8408;DHT22;4241;48.452;9.216;2023-12-20T03:55:43;5.60;99.90
8408;DHT22;4241;48.452;9.216;2023-12-20T03:58:10;5.50;99.90
8408;DHT22;4241;48.452;9.216;2023-12-20T04:00:37;5.40;99.90
8408;DHT22;4241;48.452;9.216;2023-12-20T04:03:04;5.50;99.90
8408;DHT22;4241;48.452;9.216;2023-12-20T04:05:32;5.50;99.90
8408;DHT22;4241;48.452;9.216;2023-12-20T04:08:00;5.40;99.90
8408;DHT22;4241;48.452;9.216;2023-12-20T04:10:27;5.50;99.90
8408;DHT22;4241;48.452;9.216;2023-12-20T04:12:54;5.40;99.90
8408;DHT22;4241;48.452;9.216;2023-12-20T04:15:21;5.40;99.90
8408;DHT22;4241;48.452;9.216;2023-12-20T04:17:48;5.40;99.90
8408;DHT22;4241;48.452;9.216;2023-12-20T04:20:15;5.30;99.90
8408;DHT22;4241;48.452;9.216;2023-12-20T04:22:43;5.30;99.90
8408;DHT22;4241;48.452;9.216;2023-12-20T04:25:09;5.40;99.90
8408;DHT22;4241;48.452;9.216;2023-12-20T04:27:36;5.40;99.90
8408;DHT22;4241;48.452;9.216;2023-12-20T04:30:04;5.40;99.90
8408;DHT22;4241;48.452;9.216;2023-12-20T04:32:31;5.30;99.90
8408;DHT22;4241;48.452;9.216;2023-12-20T04:34:58;5.40;99.90
8408;DHT22;4241;48.452;9.216;2023-12-20T04:37:25;5.40;99.90
8408;DHT22;4241;48.452;9.216;2023-12-20T04:39:53;5.20;99.90
8408;DHT22;4241;48.452;9.216;2023-12-20T04:42:20;5.20;99.90
8408;DHT22;4241;48.452;9.216;2023-12-20T04:44:47;5.40;99.90
8408;DHT22;4241;48.452;9.216;2023-12-20T04:47:13;5.20;99.90
8408;DHT22;4241;48.452;9.216;2023-12-20T04:49:40;5.20;99.90
8408;DHT22;4241;48.452;9.216;2023-12-20T04:52:07;5.20;99.90
8408;DHT22;4241;48.452;9.216;2023-12-20T04:54:34;5.10;99.90
8408;DHT22;4241;48.452;9.216;2023-12-20T04:57:02;5.10;99.90
8408;DHT22;4241;48.452;9.216;2023-12-20T04:59:29;5.10;99.90
8408;DHT22;4241;48.452;9.216;2023-12-20T05:01:56;5.10;99.90
8408;DHT22;4241;48.452;9.216;2023-12-20T05:04:23;5.10;99.90
8408;DHT22;4241;48.452;9.216;2023-12-20T05:06:50;5.00;99.90
8408;DHT22;4241;48.452;9.216;2023-12-20T05:09:16;5.00;99.90
8408;DHT22;4241;48.452;9.216;2023-12-20T05:11:43;5.10;99.90
8408;DHT22;4241;48.452;9.216;2023-12-20T05:14:11;5.10;99.90
8408;DHT22;4241;48.452;9.216;2023-12-20T05:16:38;5.10;99.90
8408;DHT22;4241;48.452;9.216;2023-12-20T05:19:05;5.00;99.90
8408;DHT22;4241;48.452;9.216;2023-12-20T05:21:32;5.10;99.90
8408;DHT22;4241;48.452;9.216;2023-12-20T05:23:59;5.10;99.90
8408;DHT22;4241;48.452;9.216;2023-12-20T05:26:26;5.10;99.90
8408;DHT22;4241;48.452;9.216;2023-12-20T05:28:54;5.20;99.90
8408;DHT22;4241;48.452;9.216;2023-12-20T05:31:22;5.10;99.90
8408;DHT22;4241;48.452;9.216;2023-12-20T05:33:49;5.10;99.90
8408;DHT22;4241;48.452;9.216;2023-12-20T05:36:16;5.30;99.90
8408;DHT22;4241;48.452;9.216;2023-12-20T05:38:43;5.10;99.90
8408;DHT22;4241;48.452;9.216;2023-12-20T05:41:09;5.10;99.90
8408;DHT22;4241;48.452;9.216;2023-12-20T05:43:36;5.10;99.90
8408;DHT22;4241;48.452;9.216;2023-12-20T05:46:03;5.00;99.90
8408;DHT22;4241;48.452;9.216;2023-12-20T05:48:31;5.10;99.90
8408;DHT22;4241;48.452;9.216;2023-12-20T05:50:58;5.20;99.90
8408;DHT22;4241;48.452;9.216;2023-12-20T05:53:25;5.10;99.90
8408;DHT22;4241;48.452;9.216;2023-12-20T05:55:52;5.10;99.90
8408;DHT22;4241;48.452;9.216;2023-12-20T05:58:18;5.00;99.90
8408;DHT22;4241;48.452;9.216;2023-12-20T06:00:45;5.10;99.90
8408;DHT22;4241;48.452;9.216;2023-12-20T06:03:12;5.00;99.90
8408;DHT22;4241;48.452;9.216;2023-12-20T06:05:40;5.00;99.90
8408;DHT22;4241;48.452;9.216;2023-12-20T06:08:07;5.10;99.90
8408;DHT22;4241;48.452;9.216;2023-12-20T06:10:33;5.10;99.90
8408;DHT22;4241;48.452;9.216;2023-12-20T06:13:00;5.10;99.90
8408;DHT22;4241;48.452;9.216;2023-12-20T06:15:29;5.10;99.90
8408;DHT22;4241;48.452;9.216;2023-12-20T06:17:56;5.00;99.90
8408;DHT22;4241;48.452;9.216;2023-12-20T06:20:26;5.10;99.90
8408;DHT22;4241;48.452;9.216;2023-12-20T06:22:54;5.10;99.90
8408;DHT22;4241;48.452;9.216;2023-12-20T06:25:21;5.10;99.90
8408;DHT22;4241;48.452;9.216;2023-12-20T06:27:48;5.10;99.90
8408;DHT22;4241;48.452;9.216;2023-12-20T06:30:15;5.10;99.90
8408;DHT22;4241;48.452;9.216;2023-12-20T06:32:42;5.10;99.90
8408;DHT22;4241;48.452;9.216;2023-12-20T06:35:09;5.20;99.90
8408;DHT22;4241;48.452;9.216;2023-12-20T06:40:10;5.10;99.90
8408;DHT22;4241;48.452;9.216;2023-12-20T06:42:37;5.10;99.90
8408;DHT22;4241;48.452;9.216;2023-12-20T06:45:04;5.30;99.90
8408;DHT22;4241;48.452;9.216;2023-12-20T06:47:31;5.20;99.90
8408;DHT22;4241;48.452;9.216;2023-12-20T06:49:58;5.00;99.90
8408;DHT22;4241;48.452;9.216;2023-12-20T06:52:25;5.20;99.90
8408;DHT22;4241;48.452;9.216;2023-12-20T06:54:52;5.20;99.90
8408;DHT22;4241;48.452;9.216;2023-12-20T06:57:20;5.20;99.90
8408;DHT22;4241;48.452;9.216;2023-12-20T06:59:46;5.10;99.90
8408;DHT22;4241;48.452;9.216;2023-12-20T07:02:13;5.20;99.90
8408;DHT22;4241;48.452;9.216;2023-12-20T07:04:40;5.30;99.90
8408;DHT22;4241;48.452;9.216;2023-12-20T07:07:07;5.30;99.90
8408;DHT22;4241;48.452;9.216;2023-12-20T07:09:34;5.30;99.90
8408;DHT22;4241;48.452;9.216;2023-12-20T07:12:00;5.40;99.90
8408;DHT22;4241;48.452;9.216;2023-12-20T07:14:29;5.20;99.90
8408;DHT22;4241;48.452;9.216;2023-12-20T07:16:55;5.30;99.90
8408;DHT22;4241;48.452;9.216;2023-12-20T07:19:22;5.30;99.90
8408;DHT22;4241;48.452;9.216;2023-12-20T07:21:49;5.40;99.90
8408;DHT22;4241;48.452;9.216;2023-12-20T07:24:16;5.30;99.90
8408;DHT22;4241;48.452;9.216;2023-12-20T07:26:43;5.40;99.90
8408;DHT22;4241;48.452;9.216;2023-12-20T07:29:09;5.40;99.90
8408;DHT22;4241;48.452;9.216;2023-12-20T07:31:37;5.40;99.90
8408;DHT22;4241;48.452;9.216;2023-12-20T07:34:04;5.40;99.90
8408;DHT22;4241;48.452;9.216;2023-12-20T07:36:31;5.40;99.90
8408;DHT22;4241;48.452;9.216;2023-12-20T07:38:58;5.40;99.90
8408;DHT22;4241;48.452;9.216;2023-12-20T07:41:25;5.40;99.90
8408;DHT22;4241;48.452;9.216;2023-12-20T07:46:21;5.50;99.90
8408;DHT22;4241;48.452;9.216;2023-12-20T07:48:50;5.50;99.90
8408;DHT22;4241;48.452;9.216;2023-12-20T07:51:17;5.60;99.90
8408;DHT22;4241;48.452;9.216;2023-12-20T07:53:44;5.50;99.90
8408;DHT22;4241;48.452;9.216;2023-12-20T07:56:14;5.50;99.90
8408;DHT22;4241;48.452;9.216;2023-12-20T07:58:41;5.50;99.90
8408;DHT22;4241;48.452;9.216;2023-12-20T08:01:08;5.50;99.90
8408;DHT22;4241;48.452;9.216;2023-12-20T08:03:35;5.60;99.90
8408;DHT22;4241;48.452;9.216;2023-12-20T08:06:04;5.50;99.90
8408;DHT22;4241;48.452;9.216;2023-12-20T08:08:31;5.50;99.90
8408;DHT22;4241;48.452;9.216;2023-12-20T08:10:57;5.50;99.90
8408;DHT22;4241;48.452;9.216;2023-12-20T08:13:25;5.50;99.90
8408;DHT22;4241;48.452;9.216;2023-12-20T08:15:52;5.50;99.90
8408;DHT22;4241;48.452;9.216;2023-12-20T08:18:21;5.50;99.90
8408;DHT22;4241;48.452;9.216;2023-12-20T08:20:48;5.50;99.90
8408;DHT22;4241;48.452;9.216;2023-12-20T08:23:16;5.60;99.90
8408;DHT22;4241;48.452;9.216;2023-12-20T08:25:43;5.50;99.90
8408;DHT22;4241;48.452;9.216;2023-12-20T08:28:10;5.60;99.90
8408;DHT22;4241;48.452;9.216;2023-12-20T08:30:37;5.60;99.90
8408;DHT22;4241;48.452;9.216;2023-12-20T08:33:04;5.50;99.90
8408;DHT22;4241;48.452;9.216;2023-12-20T08:38:01;5.50;99.90
8408;DHT22;4241;48.452;9.216;2023-12-20T08:40:29;5.60;99.90
8408;DHT22;4241;48.452;9.216;2023-12-20T08:42:56;5.60;99.90
8408;DHT22;4241;48.452;9.216;2023-12-20T08:47:50;5.60;99.90
8408;DHT22;4241;48.452;9.216;2023-12-20T08:52:44;5.70;99.90
8408;DHT22;4241;48.452;9.216;2023-12-20T08:55:11;5.70;99.90
8408;DHT22;4241;48.452;9.216;2023-12-20T08:57:39;5.80;99.90
8408;DHT22;4241;48.452;9.216;2023-12-20T09:00:07;5.80;99.90
8408;DHT22;4241;48.452;9.216;2023-12-20T09:05:03;5.70;99.90
8408;DHT22;4241;48.452;9.216;2023-12-20T09:07:30;5.80;99.90
8408;DHT22;4241;48.452;9.216;2023-12-20T09:09:57;5.70;99.90
8408;DHT22;4241;48.452;9.216;2023-12-20T09:12:25;5.70;99.90
8408;DHT22;4241;48.452;9.216;2023-12-20T09:14:53;5.70;99.90
8408;DHT22;4241;48.452;9.216;2023-12-20T09:17:20;5.70;99.90
8408;DHT22;4241;48.452;9.216;2023-12-20T09:19:48;5.70;99.90
8408;DHT22;4241;48.452;9.216;2023-12-20T09:22:17;5.80;99.90
8408;DHT22;4241;48.452;9.216;2023-12-20T09:27:12;5.50;99.90
8408;DHT22;4241;48.452;9.216;2023-12-20T09:32:07;5.70;99.90
8408;DHT22;4241;48.452;9.216;2023-12-20T09:37:03;5.10;99.90
8408;DHT22;4241;48.452;9.216;2023-12-20T09:39:30;4.80;99.90
8408;DHT22;4241;48.452;9.216;2023-12-20T09:42:01;4.50;99.90
8408;DHT22;4241;48.452;9.216;2023-12-20T09:44:28;4.40;99.90
8408;DHT22;4241;48.452;9.216;2023-12-20T09:46:56;4.30;99.90
8408;DHT22;4241;48.452;9.216;2023-12-20T09:49:25;4.20;99.90
8408;DHT22;4241;48.452;9.216;2023-12-20T09:51:54;4.10;99.90
8408;DHT22;4241;48.452;9.216;2023-12-20T09:54:21;4.20;99.90
8408;DHT22;4241;48.452;9.216;2023-12-20T09:56:49;4.30;99.90
8408;DHT22;4241;48.452;9.216;2023-12-20T09:59:16;4.30;99.90
8408;DHT22;4241;48.452;9.216;2023-12-20T10:01:43;4.40;99.90
8408;DHT22;4241;48.452;9.216;2023-12-20T10:04:11;4.40;99.90
8408;DHT22;4241;48.452;9.216;2023-12-20T10:06:41;4.40;99.90
8408;DHT22;4241;48.452;9.216;2023-12-20T10:09:08;4.40;99.90
8408;DHT22;4241;48.452;9.216;2023-12-20T10:11:35;4.60;99.90
8408;DHT22;4241;48.452;9.216;2023-12-20T10:14:03;4.70;99.90
8408;DHT22;4241;48.452;9.216;2023-12-20T10:16:30;4.70;99.90
8408;DHT22;4241;48.452;9.216;2023-12-20T10:18:58;4.80;99.90
8408;DHT22;4241;48.452;9.216;2023-12-20T10:23:55;4.70;99.90
8408;DHT22;4241;48.452;9.216;2023-12-20T10:26:23;4.40;99.90
8408;DHT22;4241;48.452;9.216;2023-12-20T10:28:51;5.10;99.90
8408;DHT22;4241;48.452;9.216;2023-12-20T10:31:29;5.00;99.90
8408;DHT22;4241;48.452;9.216;2023-12-20T10:33:57;5.00;99.90
8408;DHT22;4241;48.452;9.216;2023-12-20T10:36:25;5.10;99.90
8408;DHT22;4241;48.452;9.216;2023-12-20T10:38:55;4.90;99.90
8408;DHT22;4241;48.452;9.216;2023-12-20T10:41:26;4.80;99.90
8408;DHT22;4241;48.452;9.216;2023-12-20T10:43:56;4.90;99.90
8408;DHT22;4241;48.452;9.216;2023-12-20T10:46:26;4.90;99.90
8408;DHT22;4241;48.452;9.216;2023-12-20T10:48:53;4.90;99.90
8408;DHT22;4241;48.452;9.216;2023-12-20T10:51:21;4.90;99.90
8408;DHT22;4241;48.452;9.216;2023-12-20T10:53:48;5.00;99.90
8408;DHT22;4241;48.452;9.216;2023-12-20T10:56:18;4.90;99.90
8408;DHT22;4241;48.452;9.216;2023-12-20T10:58:47;4.90;99.90
8408;DHT22;4241;48.452;9.216;2023-12-20T11:01:16;4.90;99.90
8408;DHT22;4241;48.452;9.216;2023-12-20T11:03:46;4.90;99.90
8408;DHT22;4241;48.452;9.216;2023-12-20T11:06:27;4.90;99.90
8408;DHT22;4241;48.452;9.216;2023-12-20T11:09:02;5.00;99.90
8408;DHT22;4241;48.452;9.216;2023-12-20T11:11:42;4.90;99.90
8408;DHT22;4241;48.452;9.216;2023-12-20T11:14:17;5.00;99.90
8408;DHT22;4241;48.452;9.216;2023-12-20T11:16:45;4.90;99.90
8408;DHT22;4241;48.452;9.216;2023-12-20T11:19:12;5.00;99.90
8408;DHT22;4241;48.452;9.216;2023-12-20T11:21:40;7.10;99.90
8408;DHT22;4241;48.452;9.216;2023-12-20T11:24:08;4.70;99.90
8408;DHT22;4241;48.452;9.216;2023-12-20T11:26:37;5.00;99.90
8408;DHT22;4241;48.452;9.216;2023-12-20T11:29:29;4.90;99.90
8408;DHT22;4241;48.452;9.216;2023-12-20T11:31:56;5.10;99.90
8408;DHT22;4241;48.452;9.216;2023-12-20T11:34:27;5.10;99.90
8408;DHT22;4241;48.452;9.216;2023-12-20T11:36:57;5.10;99.90
8408;DHT22;4241;48.452;9.216;2023-12-20T11:39:25;5.10;99.90
8408;DHT22;4241;48.452;9.216;2023-12-20T11:41:54;5.10;99.90
8408;DHT22;4241;48.452;9.216;2023-12-20T11:44:21;5.10;99.90
8408;DHT22;4241;48.452;9.216;2023-12-20T11:46:49;5.10;99.90
8408;DHT22;4241;48.452;9.216;2023-12-20T11:49:15;5.10;99.90
8408;DHT22;4241;48.452;9.216;2023-12-20T11:51:42;5.20;99.90
8408;DHT22;4241;48.452;9.216;2023-12-20T11:54:10;5.10;99.90
8408;DHT22;4241;48.452;9.216;2023-12-20T11:59:08;5.20;99.90
8408;DHT22;4241;48.452;9.216;2023-12-20T12:04:04;5.10;99.90
8408;DHT22;4241;48.452;9.216;2023-12-20T12:08:58;5.30;99.90
8408;DHT22;4241;48.452;9.216;2023-12-20T12:11:25;5.00;99.90
8408;DHT22;4241;48.452;9.216;2023-12-20T12:16:21;5.90;99.90
8408;DHT22;4241;48.452;9.216;2023-12-20T12:18:55;5.00;99.90
8408;DHT22;4241;48.452;9.216;2023-12-20T12:21:22;5.00;99.90
8408;DHT22;4241;48.452;9.216;2023-12-20T12:23:49;5.00;99.90
8408;DHT22;4241;48.452;9.216;2023-12-20T12:26:16;5.00;99.90
8408;DHT22;4241;48.452;9.216;2023-12-20T12:28:43;4.90;99.90
8408;DHT22;4241;48.452;9.216;2023-12-20T12:31:14;5.00;99.90
8408;DHT22;4241;48.452;9.216;2023-12-20T12:33:43;5.00;99.90
8408;DHT22;4241;48.452;9.216;2023-12-20T12:36:10;4.90;99.90
8408;DHT22;4241;48.452;9.216;2023-12-20T12:38:41;4.90;99.90
8408;DHT22;4241;48.452;9.216;2023-12-20T12:41:08;4.70;99.90
8408;DHT22;4241;48.452;9.216;2023-12-20T12:43:36;4.80;99.90
8408;DHT22;4241;48.452;9.216;2023-12-20T12:46:03;4.90;99.90
8408;DHT22;4241;48.452;9.216;2023-12-20T12:48:30;4.90;99.90
8408;DHT22;4241;48.452;9.216;2023-12-20T12:50:58;4.80;99.90
8408;DHT22;4241;48.452;9.216;2023-12-20T12:53:25;4.80;99.90
8408;DHT22;4241;48.452;9.216;2023-12-20T12:55:53;4.90;99.90
8408;DHT22;4241;48.452;9.216;2023-12-20T12:58:20;4.90;99.90
8408;DHT22;4241;48.452;9.216;2023-12-20T13:00:47;4.90;99.90
8408;DHT22;4241;48.452;9.216;2023-12-20T13:03:14;4.90;99.90
8408;DHT22;4241;48.452;9.216;2023-12-20T13:05:42;5.00;99.90
8408;DHT22;4241;48.452;9.216;2023-12-20T13:08:10;4.90;99.90
8408;DHT22;4241;48.452;9.216;2023-12-20T13:10:37;4.90;99.90
8408;DHT22;4241;48.452;9.216;2023-12-20T13:13:04;4.90;99.90
8408;DHT22;4241;48.452;9.216;2023-12-20T13:15:31;4.90;99.90
8408;DHT22;4241;48.452;9.216;2023-12-20T13:17:58;4.80;99.90
8408;DHT22;4241;48.452;9.216;2023-12-20T13:20:25;4.80;99.90
8408;DHT22;4241;48.452;9.216;2023-12-20T13:22:52;4.90;99.90
8408;DHT22;4241;48.452;9.216;2023-12-20T13:25:20;4.80;99.90
8408;DHT22;4241;48.452;9.216;2023-12-20T13:27:47;4.80;99.90
8408;DHT22;4241;48.452;9.216;2023-12-20T13:30:14;5.00;99.90
8408;DHT22;4241;48.452;9.216;2023-12-20T13:32:41;4.90;99.90
8408;DHT22;4241;48.452;9.216;2023-12-20T13:35:08;5.00;99.90
8408;DHT22;4241;48.452;9.216;2023-12-20T13:37:35;5.00;99.90
8408;DHT22;4241;48.452;9.216;2023-12-20T13:40:02;5.00;99.90
8408;DHT22;4241;48.452;9.216;2023-12-20T13:42:31;5.00;99.90
8408;DHT22;4241;48.452;9.216;2023-12-20T13:44:58;5.00;99.90
8408;DHT22;4241;48.452;9.216;2023-12-20T13:47:25;4.90;99.90
8408;DHT22;4241;48.452;9.216;2023-12-20T13:49:51;5.00;99.90
8408;DHT22;4241;48.452;9.216;2023-12-20T13:52:18;5.00;99.90
8408;DHT22;4241;48.452;9.216;2023-12-20T13:54:45;5.10;99.90
8408;DHT22;4241;48.452;9.216;2023-12-20T13:57:12;5.10;99.90
8408;DHT22;4241;48.452;9.216;2023-12-20T13:59:40;5.10;99.90
8408;DHT22;4241;48.452;9.216;2023-12-20T14:02:07;5.10;99.90
8408;DHT22;4241;48.452;9.216;2023-12-20T14:04:34;5.10;99.90
8408;DHT22;4241;48.452;9.216;2023-12-20T14:07:01;5.10;99.90
8408;DHT22;4241;48.452;9.216;2023-12-20T14:09:28;5.10;99.90
8408;DHT22;4241;48.452;9.216;2023-12-20T14:11:55;5.10;99.90
8408;DHT22;4241;48.452;9.216;2023-12-20T14:14:22;5.00;99.90
8408;DHT22;4241;48.452;9.216;2023-12-20T14:16:50;5.00;99.90
8408;DHT22;4241;48.452;9.216;2023-12-20T14:19:17;4.80;99.90
8408;DHT22;4241;48.452;9.216;2023-12-20T14:21:44;4.90;99.90
8408;DHT22;4241;48.452;9.216;2023-12-20T14:24:12;4.80;99.90
8408;DHT22;4241;48.452;9.216;2023-12-20T14:26:40;4.80;99.90
8408;DHT22;4241;48.452;9.216;2023-12-20T14:29:07;4.80;99.90
8408;DHT22;4241;48.452;9.216;2023-12-20T14:31:34;4.80;99.90
8408;DHT22;4241;48.452;9.216;2023-12-20T14:34:03;4.80;99.90
8408;DHT22;4241;48.452;9.216;2023-12-20T14:36:30;4.70;99.90
8408;DHT22;4241;48.452;9.216;2023-12-20T14:38:57;4.80;99.90
8408;DHT22;4241;48.452;9.216;2023-12-20T14:43:52;4.40;99.90
8408;DHT22;4241;48.452;9.216;2023-12-20T14:46:19;4.60;99.90
8408;DHT22;4241;48.452;9.216;2023-12-20T14:48:46;4.50;99.90
8408;DHT22;4241;48.452;9.216;2023-12-20T14:51:15;4.60;99.90
8408;DHT22;4241;48.452;9.216;2023-12-20T14:53:42;4.50;99.90
8408;DHT22;4241;48.452;9.216;2023-12-20T14:56:09;4.40;99.90
8408;DHT22;4241;48.452;9.216;2023-12-20T14:58:35;4.60;99.90
8408;DHT22;4241;48.452;9.216;2023-12-20T15:03:30;4.40;99.90
8408;DHT22;4241;48.452;9.216;2023-12-20T15:08:26;4.30;99.90
8408;DHT22;4241;48.452;9.216;2023-12-20T15:10:53;4.20;99.90
8408;DHT22;4241;48.452;9.216;2023-12-20T15:13:19;4.20;99.90
8408;DHT22;4241;48.452;9.216;2023-12-20T15:15:46;4.40;99.90
8408;DHT22;4241;48.452;9.216;2023-12-20T15:18:13;4.20;99.90
8408;DHT22;4241;48.452;9.216;2023-12-20T15:20:40;4.00;99.90
8408;DHT22;4241;48.452;9.216;2023-12-20T15:23:09;4.10;99.90
8408;DHT22;4241;48.452;9.216;2023-12-20T15:25:37;4.20;99.90
8408;DHT22;4241;48.452;9.216;2023-12-20T15:37:56;4.30;99.90
8408;DHT22;4241;48.452;9.216;2023-12-20T15:40:23;4.30;99.90
8408;DHT22;4241;48.452;9.216;2023-12-20T15:42:52;4.20;99.90
8408;DHT22;4241;48.452;9.216;2023-12-20T15:45:19;4.20;99.90
8408;DHT22;4241;48.452;9.216;2023-12-20T15:47:46;4.20;99.90
8408;DHT22;4241;48.452;9.216;2023-12-20T15:50:13;4.10;99.90
8408;DHT22;4241;48.452;9.216;2023-12-20T15:52:39;4.20;99.90
8408;DHT22;4241;48.452;9.216;2023-12-20T15:55:08;4.20;99.90
8408;DHT22;4241;48.452;9.216;2023-12-20T15:57:35;4.10;99.90
8408;DHT22;4241;48.452;9.216;2023-12-20T16:00:06;4.10;99.90
8408;DHT22;4241;48.452;9.216;2023-12-20T16:02:33;4.10;99.90
8408;DHT22;4241;48.452;9.216;2023-12-20T16:05:00;4.00;99.90
8408;DHT22;4241;48.452;9.216;2023-12-20T16:07:27;4.00;99.90
8408;DHT22;4241;48.452;9.216;2023-12-20T16:12:22;4.10;99.90
8408;DHT22;4241;48.452;9.216;2023-12-20T16:14:48;3.90;99.90
8408;DHT22;4241;48.452;9.216;2023-12-20T16:17:16;3.90;99.90
8408;DHT22;4241;48.452;9.216;2023-12-20T16:22:10;3.90;99.90
8408;DHT22;4241;48.452;9.216;2023-12-20T16:24:37;4.00;99.90
8408;DHT22;4241;48.452;9.216;2023-12-20T16:27:06;3.90;99.90
8408;DHT22;4241;48.452;9.216;2023-12-20T16:29:33;3.90;99.90
8408;DHT22;4241;48.452;9.216;2023-12-20T16:31:59;3.90;99.90
8408;DHT22;4241;48.452;9.216;2023-12-20T16:34:27;3.80;99.90
8408;DHT22;4241;48.452;9.216;2023-12-20T16:36:54;3.60;99.90
8408;DHT22;4241;48.452;9.216;2023-12-20T16:39:23;3.80;99.90
8408;DHT22;4241;48.452;9.216;2023-12-20T16:41:50;3.80;99.90
8408;DHT22;4241;48.452;9.216;2023-12-20T16:44:17;3.80;99.90
8408;DHT22;4241;48.452;9.216;2023-12-20T16:46:44;3.80;99.90
8408;DHT22;4241;48.452;9.216;2023-12-20T16:49:11;3.90;99.90
8408;DHT22;4241;48.452;9.216;2023-12-20T16:51:39;3.90;99.90
8408;DHT22;4241;48.452;9.216;2023-12-20T16:54:06;3.90;99.90
8408;DHT22;4241;48.452;9.216;2023-12-20T16:56:33;4.00;99.90
8408;DHT22;4241;48.452;9.216;2023-12-20T16:58:59;3.80;99.90
8408;DHT22;4241;48.452;9.216;2023-12-20T17:01:26;3.80;99.90
8408;DHT22;4241;48.452;9.216;2023-12-20T17:06:21;3.80;99.90
8408;DHT22;4241;48.452;9.216;2023-12-20T17:08:51;3.90;99.90
8408;DHT22;4241;48.452;9.216;2023-12-20T17:11:18;3.90;99.90
8408;DHT22;4241;48.452;9.216;2023-12-20T17:16:14;3.90;99.90
8408;DHT22;4241;48.452;9.216;2023-12-20T17:21:12;4.00;99.90
8408;DHT22;4241;48.452;9.216;2023-12-20T17:23:38;4.00;99.90
8408;DHT22;4241;48.452;9.216;2023-12-20T17:26:07;4.10;99.90
8408;DHT22;4241;48.452;9.216;2023-12-20T17:28:33;4.20;99.90
8408;DHT22;4241;48.452;9.216;2023-12-20T17:31:00;4.30;99.90
8408;DHT22;4241;48.452;9.216;2023-12-20T17:33:27;4.20;99.90